sensor_id;sensor_type;location;lat;lon;timestamp;temperature;humidity
28336;DHT22;15592;53.656;7.276;2022-12-07T00:01:10;5.20;99.90
28336;DHT22;15592;53.656;7.276;2022-12-07T00:03:38;5.20;99.90
28336;DHT22;15592;53.656;7.276;2022-12-07T00:06:05;5.20;99.90
28336;DHT22;15592;53.656;7.276;2022-12-07T00:08:31;5.20;99.90
28336;DHT22;15592;53.656;7.276;2022-12-07T00:11:07;5.30;99.90
28336;DHT22;15592;53.656;7.276;2022-12-07T00:13:34;5.30;99.90
28336;DHT22;15592;53.656;7.276;2022-12-07T00:16:06;5.30;99.90
28336;DHT22;15592;53.656;7.276;2022-12-07T00:18:32;5.30;99.90
28336;DHT22;15592;53.656;7.276;2022-12-07T00:21:02;5.40;99.90
28336;DHT22;15592;53.656;7.276;2022-12-07T00:23:28;5.40;99.90
28336;DHT22;15592;53.656;7.276;2022-12-07T00:25:54;5.40;99.90
28336;DHT22;15592;53.656;7.276;2022-12-07T00:28:20;5.50;99.90
28336;DHT22;15592;53.656;7.276;2022-12-07T00:30:45;5.50;99.90
28336;DHT22;15592;53.656;7.276;2022-12-07T00:33:11;5.40;99.90
28336;DHT22;15592;53.656;7.276;2022-12-07T00:35:37;5.40;99.90
28336;DHT22;15592;53.656;7.276;2022-12-07T00:38:02;5.30;99.90
28336;DHT22;15592;53.656;7.276;2022-12-07T00:40:28;5.30;99.90
28336;DHT22;15592;53.656;7.276;2022-12-07T00:42:53;5.30;99.90
28336;DHT22;15592;53.656;7.276;2022-12-07T00:45:19;5.30;99.90
28336;DHT22;15592;53.656;7.276;2022-12-07T00:47:45;5.30;99.90
28336;DHT22;15592;53.656;7.276;2022-12-07T00:50:10;5.30;99.90
28336;DHT22;15592;53.656;7.276;2022-12-07T00:52:36;5.20;99.90
28336;DHT22;15592;53.656;7.276;2022-12-07T00:55:02;5.20;99.90
28336;DHT22;15592;53.656;7.276;2022-12-07T00:57:27;5.10;99.90
28336;DHT22;15592;53.656;7.276;2022-12-07T00:59:53;5.10;99.90
28336;DHT22;15592;53.656;7.276;2022-12-07T01:02:23;5.00;99.90
28336;DHT22;15592;53.656;7.276;2022-12-07T01:04:48;5.00;99.90
28336;DHT22;15592;53.656;7.276;2022-12-07T01:07:14;5.00;99.90
28336;DHT22;15592;53.656;7.276;2022-12-07T01:09:40;5.00;99.90
28336;DHT22;15592;53.656;7.276;2022-12-07T01:12:05;4.90;99.90
28336;DHT22;15592;53.656;7.276;2022-12-07T01:14:31;4.90;99.90
28336;DHT22;15592;53.656;7.276;2022-12-07T01:16:56;4.90;99.90
28336;DHT22;15592;53.656;7.276;2022-12-07T01:19:22;4.90;99.90
28336;DHT22;15592;53.656;7.276;2022-12-07T01:21:48;4.90;99.90
28336;DHT22;15592;53.656;7.276;2022-12-07T01:24:13;4.90;99.90
28336;DHT22;15592;53.656;7.276;2022-12-07T01:26:39;4.90;99.90
28336;DHT22;15592;53.656;7.276;2022-12-07T01:29:05;4.90;99.90
28336;DHT22;15592;53.656;7.276;2022-12-07T01:31:30;5.00;99.90
28336;DHT22;15592;53.656;7.276;2022-12-07T01:33:58;5.10;99.90
28336;DHT22;15592;53.656;7.276;2022-12-07T01:38:53;5.00;99.90
28336;DHT22;15592;53.656;7.276;2022-12-07T01:41:22;5.00;99.90
28336;DHT22;15592;53.656;7.276;2022-12-07T01:44:12;4.90;99.90
28336;DHT22;15592;53.656;7.276;2022-12-07T01:46:38;5.00;99.90
28336;DHT22;15592;53.656;7.276;2022-12-07T01:49:12;5.00;99.90
28336;DHT22;15592;53.656;7.276;2022-12-07T01:51:40;5.00;99.90
28336;DHT22;15592;53.656;7.276;2022-12-07T01:54:08;5.00;99.90
28336;DHT22;15592;53.656;7.276;2022-12-07T01:56:34;5.00;99.90
28336;DHT22;15592;53.656;7.276;2022-12-07T01:59:01;4.90;99.90
28336;DHT22;15592;53.656;7.276;2022-12-07T02:01:26;4.90;99.90
28336;DHT22;15592;53.656;7.276;2022-12-07T02:03:52;4.90;99.90
28336;DHT22;15592;53.656;7.276;2022-12-07T02:06:22;4.90;99.90
28336;DHT22;15592;53.656;7.276;2022-12-07T02:08:49;4.90;99.90
28336;DHT22;15592;53.656;7.276;2022-12-07T02:11:15;5.00;99.90
28336;DHT22;15592;53.656;7.276;2022-12-07T02:13:43;5.20;99.90
28336;DHT22;15592;53.656;7.276;2022-12-07T02:16:42;5.30;99.90
28336;DHT22;15592;53.656;7.276;2022-12-07T02:28:19;5.20;99.90
28336;DHT22;15592;53.656;7.276;2022-12-07T02:30:50;5.10;99.90
28336;DHT22;15592;53.656;7.276;2022-12-07T02:33:41;5.00;99.90
28336;DHT22;15592;53.656;7.276;2022-12-07T02:36:20;5.00;99.90
28336;DHT22;15592;53.656;7.276;2022-12-07T02:39:00;5.00;99.90
28336;DHT22;15592;53.656;7.276;2022-12-07T02:41:36;5.00;99.90
28336;DHT22;15592;53.656;7.276;2022-12-07T02:44:07;5.00;99.90
28336;DHT22;15592;53.656;7.276;2022-12-07T02:46:41;4.90;99.90
28336;DHT22;15592;53.656;7.276;2022-12-07T02:49:08;4.90;99.90
28336;DHT22;15592;53.656;7.276;2022-12-07T02:51:39;4.90;99.90
28336;DHT22;15592;53.656;7.276;2022-12-07T02:54:17;4.90;99.90
28336;DHT22;15592;53.656;7.276;2022-12-07T03:02:09;5.20;99.90
28336;DHT22;15592;53.656;7.276;2022-12-07T03:04:45;5.30;99.90
28336;DHT22;15592;53.656;7.276;2022-12-07T03:13:12;5.20;99.90
28336;DHT22;15592;53.656;7.276;2022-12-07T03:16:08;5.10;99.90
28336;DHT22;15592;53.656;7.276;2022-12-07T03:21:16;5.10;99.90
28336;DHT22;15592;53.656;7.276;2022-12-07T03:23:45;5.00;99.90
28336;DHT22;15592;53.656;7.276;2022-12-07T03:26:14;5.00;99.90
28336;DHT22;15592;53.656;7.276;2022-12-07T03:28:47;5.00;99.90
28336;DHT22;15592;53.656;7.276;2022-12-07T03:31:33;5.00;99.90
28336;DHT22;15592;53.656;7.276;2022-12-07T03:34:11;5.10;99.90
28336;DHT22;15592;53.656;7.276;2022-12-07T03:37:14;5.10;99.90
28336;DHT22;15592;53.656;7.276;2022-12-07T03:39:59;5.00;99.90
28336;DHT22;15592;53.656;7.276;2022-12-07T03:42:28;4.90;99.90
28336;DHT22;15592;53.656;7.276;2022-12-07T03:44:54;4.80;99.90
28336;DHT22;15592;53.656;7.276;2022-12-07T03:50:05;4.70;99.90
28336;DHT22;15592;53.656;7.276;2022-12-07T03:52:42;4.70;99.90
28336;DHT22;15592;53.656;7.276;2022-12-07T03:55:25;4.60;99.90
28336;DHT22;15592;53.656;7.276;2022-12-07T03:57:56;4.60;99.90
28336;DHT22;15592;53.656;7.276;2022-12-07T04:00:23;4.50;99.90
28336;DHT22;15592;53.656;7.276;2022-12-07T04:02:51;4.50;99.90
28336;DHT22;15592;53.656;7.276;2022-12-07T04:05:17;4.50;99.90
28336;DHT22;15592;53.656;7.276;2022-12-07T04:07:43;4.40;99.90
28336;DHT22;15592;53.656;7.276;2022-12-07T04:10:09;4.50;99.90
28336;DHT22;15592;53.656;7.276;2022-12-07T04:12:35;4.40;99.90
28336;DHT22;15592;53.656;7.276;2022-12-07T04:15:01;4.50;99.90
28336;DHT22;15592;53.656;7.276;2022-12-07T04:17:26;4.50;99.90
28336;DHT22;15592;53.656;7.276;2022-12-07T04:19:52;4.50;99.90
28336;DHT22;15592;53.656;7.276;2022-12-07T04:22:18;4.60;99.90
28336;DHT22;15592;53.656;7.276;2022-12-07T04:24:43;4.60;99.90
28336;DHT22;15592;53.656;7.276;2022-12-07T04:27:09;4.70;99.90
28336;DHT22;15592;53.656;7.276;2022-12-07T04:30:06;4.70;99.90
28336;DHT22;15592;53.656;7.276;2022-12-07T04:32:39;4.80;99.90
28336;DHT22;15592;53.656;7.276;2022-12-07T04:35:05;4.80;99.90
28336;DHT22;15592;53.656;7.276;2022-12-07T04:37:40;4.80;99.90
28336;DHT22;15592;53.656;7.276;2022-12-07T04:40:08;4.90;99.90
28336;DHT22;15592;53.656;7.276;2022-12-07T04:42:36;4.90;99.90
28336;DHT22;15592;53.656;7.276;2022-12-07T04:45:02;4.90;99.90
28336;DHT22;15592;53.656;7.276;2022-12-07T04:47:28;4.90;99.90
28336;DHT22;15592;53.656;7.276;2022-12-07T04:49:54;4.90;99.90
28336;DHT22;15592;53.656;7.276;2022-12-07T04:52:19;4.80;99.90
28336;DHT22;15592;53.656;7.276;2022-12-07T04:54:45;4.70;99.90
28336;DHT22;15592;53.656;7.276;2022-12-07T04:57:13;4.70;99.90
28336;DHT22;15592;53.656;7.276;2022-12-07T04:59:38;4.60;99.90
28336;DHT22;15592;53.656;7.276;2022-12-07T05:02:04;4.50;99.90
28336;DHT22;15592;53.656;7.276;2022-12-07T05:04:35;4.60;99.90
28336;DHT22;15592;53.656;7.276;2022-12-07T05:07:01;4.50;99.90
28336;DHT22;15592;53.656;7.276;2022-12-07T05:09:26;4.60;99.90
28336;DHT22;15592;53.656;7.276;2022-12-07T05:11:55;4.60;99.90
28336;DHT22;15592;53.656;7.276;2022-12-07T05:14:21;4.60;99.90
28336;DHT22;15592;53.656;7.276;2022-12-07T05:16:49;4.60;99.90
28336;DHT22;15592;53.656;7.276;2022-12-07T05:19:16;4.60;99.90
28336;DHT22;15592;53.656;7.276;2022-12-07T05:21:42;4.50;99.90
28336;DHT22;15592;53.656;7.276;2022-12-07T05:24:10;4.50;99.90
28336;DHT22;15592;53.656;7.276;2022-12-07T05:26:36;4.50;99.90
28336;DHT22;15592;53.656;7.276;2022-12-07T05:29:01;4.50;99.90
28336;DHT22;15592;53.656;7.276;2022-12-07T05:31:27;4.50;99.90
28336;DHT22;15592;53.656;7.276;2022-12-07T05:33:53;4.70;99.90
28336;DHT22;15592;53.656;7.276;2022-12-07T05:36:19;4.90;99.90
28336;DHT22;15592;53.656;7.276;2022-12-07T05:38:45;5.00;99.90
28336;DHT22;15592;53.656;7.276;2022-12-07T05:45:01;4.90;99.90
28336;DHT22;15592;53.656;7.276;2022-12-07T05:47:27;5.00;99.90
28336;DHT22;15592;53.656;7.276;2022-12-07T05:49:53;5.00;99.90
28336;DHT22;15592;53.656;7.276;2022-12-07T05:52:19;5.00;99.90
28336;DHT22;15592;53.656;7.276;2022-12-07T05:54:44;4.90;99.90
28336;DHT22;15592;53.656;7.276;2022-12-07T05:57:10;4.90;99.90
28336;DHT22;15592;53.656;7.276;2022-12-07T05:59:36;4.80;99.90
28336;DHT22;15592;53.656;7.276;2022-12-07T06:02:17;4.80;99.90
28336;DHT22;15592;53.656;7.276;2022-12-07T06:04:45;4.70;99.90
28336;DHT22;15592;53.656;7.276;2022-12-07T06:10:07;4.80;99.90
28336;DHT22;15592;53.656;7.276;2022-12-07T06:12:50;4.80;99.90
28336;DHT22;15592;53.656;7.276;2022-12-07T06:15:16;4.70;99.90
28336;DHT22;15592;53.656;7.276;2022-12-07T06:17:45;4.70;99.90
28336;DHT22;15592;53.656;7.276;2022-12-07T06:20:22;4.60;99.90
28336;DHT22;15592;53.656;7.276;2022-12-07T06:22:48;4.60;99.90
28336;DHT22;15592;53.656;7.276;2022-12-07T06:25:13;4.60;99.90
28336;DHT22;15592;53.656;7.276;2022-12-07T06:27:39;4.70;99.90
28336;DHT22;15592;53.656;7.276;2022-12-07T06:30:05;4.70;99.90
28336;DHT22;15592;53.656;7.276;2022-12-07T06:32:36;4.70;99.90
28336;DHT22;15592;53.656;7.276;2022-12-07T06:35:02;4.70;99.90
28336;DHT22;15592;53.656;7.276;2022-12-07T06:37:28;4.80;99.90
28336;DHT22;15592;53.656;7.276;2022-12-07T06:39:54;4.80;99.90
28336;DHT22;15592;53.656;7.276;2022-12-07T06:42:19;4.80;99.90
28336;DHT22;15592;53.656;7.276;2022-12-07T06:44:45;4.80;99.90
28336;DHT22;15592;53.656;7.276;2022-12-07T06:47:10;4.80;99.90
28336;DHT22;15592;53.656;7.276;2022-12-07T06:49:37;4.80;99.90
28336;DHT22;15592;53.656;7.276;2022-12-07T06:52:02;4.80;99.90
28336;DHT22;15592;53.656;7.276;2022-12-07T06:54:30;4.90;99.90
28336;DHT22;15592;53.656;7.276;2022-12-07T06:57:00;4.90;99.90
28336;DHT22;15592;53.656;7.276;2022-12-07T06:59:29;4.90;99.90
28336;DHT22;15592;53.656;7.276;2022-12-07T07:01:54;4.80;99.90
28336;DHT22;15592;53.656;7.276;2022-12-07T07:04:20;4.80;99.90
28336;DHT22;15592;53.656;7.276;2022-12-07T07:06:45;4.60;99.90
28336;DHT22;15592;53.656;7.276;2022-12-07T07:09:12;4.60;99.90
28336;DHT22;15592;53.656;7.276;2022-12-07T07:11:40;4.50;99.90
28336;DHT22;15592;53.656;7.276;2022-12-07T07:14:06;4.40;99.90
28336;DHT22;15592;53.656;7.276;2022-12-07T07:16:31;4.50;99.90
28336;DHT22;15592;53.656;7.276;2022-12-07T07:18:57;4.50;99.90
28336;DHT22;15592;53.656;7.276;2022-12-07T07:21:23;4.60;99.90
28336;DHT22;15592;53.656;7.276;2022-12-07T07:23:48;4.60;99.90
28336;DHT22;15592;53.656;7.276;2022-12-07T07:26:14;4.70;99.90
28336;DHT22;15592;53.656;7.276;2022-12-07T07:28:39;4.70;99.90
28336;DHT22;15592;53.656;7.276;2022-12-07T07:31:05;4.80;99.90
28336;DHT22;15592;53.656;7.276;2022-12-07T07:33:31;4.90;99.90
28336;DHT22;15592;53.656;7.276;2022-12-07T07:35:59;4.80;99.90
28336;DHT22;15592;53.656;7.276;2022-12-07T07:38:24;4.80;99.90
28336;DHT22;15592;53.656;7.276;2022-12-07T07:40:50;4.80;99.90
28336;DHT22;15592;53.656;7.276;2022-12-07T07:43:15;4.70;99.90
28336;DHT22;15592;53.656;7.276;2022-12-07T07:45:41;4.70;99.90
28336;DHT22;15592;53.656;7.276;2022-12-07T07:48:07;4.80;99.90
28336;DHT22;15592;53.656;7.276;2022-12-07T07:50:47;4.60;99.90
28336;DHT22;15592;53.656;7.276;2022-12-07T07:53:13;4.50;99.90
28336;DHT22;15592;53.656;7.276;2022-12-07T07:55:50;4.40;99.90
28336;DHT22;15592;53.656;7.276;2022-12-07T07:58:16;4.30;99.90
28336;DHT22;15592;53.656;7.276;2022-12-07T08:00:42;4.30;99.90
28336;DHT22;15592;53.656;7.276;2022-12-07T08:03:08;4.30;99.90
28336;DHT22;15592;53.656;7.276;2022-12-07T08:05:56;4.30;99.90
28336;DHT22;15592;53.656;7.276;2022-12-07T08:08:22;4.20;99.90
28336;DHT22;15592;53.656;7.276;2022-12-07T08:10:54;4.20;99.90
28336;DHT22;15592;53.656;7.276;2022-12-07T08:13:19;4.20;99.90
28336;DHT22;15592;53.656;7.276;2022-12-07T08:16:15;4.20;99.90
28336;DHT22;15592;53.656;7.276;2022-12-07T08:18:59;4.20;99.90
28336;DHT22;15592;53.656;7.276;2022-12-07T08:21:42;4.20;99.90
28336;DHT22;15592;53.656;7.276;2022-12-07T08:24:13;4.20;99.90
28336;DHT22;15592;53.656;7.276;2022-12-07T08:26:39;4.20;99.90
28336;DHT22;15592;53.656;7.276;2022-12-07T08:29:05;4.20;99.90
28336;DHT22;15592;53.656;7.276;2022-12-07T08:31:31;4.20;99.90
28336;DHT22;15592;53.656;7.276;2022-12-07T08:33:56;4.30;99.90
28336;DHT22;15592;53.656;7.276;2022-12-07T08:36:23;4.40;99.90
28336;DHT22;15592;53.656;7.276;2022-12-07T08:38:49;4.50;99.90
28336;DHT22;15592;53.656;7.276;2022-12-07T08:41:14;4.60;99.90
28336;DHT22;15592;53.656;7.276;2022-12-07T08:43:40;4.80;99.90
28336;DHT22;15592;53.656;7.276;2022-12-07T08:48:58;5.00;99.90
28336;DHT22;15592;53.656;7.276;2022-12-07T08:51:27;5.10;99.90
28336;DHT22;15592;53.656;7.276;2022-12-07T08:53:54;5.10;99.90
28336;DHT22;15592;53.656;7.276;2022-12-07T08:56:20;5.10;99.90
28336;DHT22;15592;53.656;7.276;2022-12-07T08:58:47;5.10;99.90
28336;DHT22;15592;53.656;7.276;2022-12-07T09:01:13;5.10;99.90
28336;DHT22;15592;53.656;7.276;2022-12-07T09:03:39;5.10;99.90
28336;DHT22;15592;53.656;7.276;2022-12-07T09:06:05;5.20;99.90
28336;DHT22;15592;53.656;7.276;2022-12-07T09:08:36;5.20;99.90
28336;DHT22;15592;53.656;7.276;2022-12-07T09:11:03;5.30;99.90
28336;DHT22;15592;53.656;7.276;2022-12-07T09:13:29;5.30;99.90
28336;DHT22;15592;53.656;7.276;2022-12-07T09:15:54;5.40;99.90
28336;DHT22;15592;53.656;7.276;2022-12-07T09:18:20;5.40;99.90
28336;DHT22;15592;53.656;7.276;2022-12-07T09:20:45;5.40;99.90
28336;DHT22;15592;53.656;7.276;2022-12-07T09:23:11;5.50;99.90
28336;DHT22;15592;53.656;7.276;2022-12-07T09:25:37;5.50;99.90
28336;DHT22;15592;53.656;7.276;2022-12-07T09:28:02;5.50;99.90
28336;DHT22;15592;53.656;7.276;2022-12-07T09:30:28;5.40;99.90
28336;DHT22;15592;53.656;7.276;2022-12-07T09:32:56;5.40;99.90
28336;DHT22;15592;53.656;7.276;2022-12-07T09:35:22;5.50;99.90
28336;DHT22;15592;53.656;7.276;2022-12-07T09:37:48;5.50;99.90
28336;DHT22;15592;53.656;7.276;2022-12-07T09:40:15;5.50;99.90
28336;DHT22;15592;53.656;7.276;2022-12-07T09:42:44;5.50;99.90
28336;DHT22;15592;53.656;7.276;2022-12-07T09:45:17;5.60;99.90
28336;DHT22;15592;53.656;7.276;2022-12-07T09:47:44;5.60;99.90
28336;DHT22;15592;53.656;7.276;2022-12-07T09:50:23;5.60;99.90
28336;DHT22;15592;53.656;7.276;2022-12-07T09:52:50;5.60;99.90
28336;DHT22;15592;53.656;7.276;2022-12-07T09:55:24;5.60;99.90
28336;DHT22;15592;53.656;7.276;2022-12-07T09:57:52;5.60;99.90
28336;DHT22;15592;53.656;7.276;2022-12-07T10:00:20;5.60;99.90
28336;DHT22;15592;53.656;7.276;2022-12-07T10:02:56;5.60;99.90
28336;DHT22;15592;53.656;7.276;2022-12-07T10:05:42;5.60;99.90
28336;DHT22;15592;53.656;7.276;2022-12-07T10:08:13;5.60;99.90
28336;DHT22;15592;53.656;7.276;2022-12-07T10:10:39;5.60;99.90
28336;DHT22;15592;53.656;7.276;2022-12-07T10:13:21;5.60;99.90
28336;DHT22;15592;53.656;7.276;2022-12-07T10:15:57;5.60;99.90
28336;DHT22;15592;53.656;7.276;2022-12-07T10:18:34;5.60;99.90
28336;DHT22;15592;53.656;7.276;2022-12-07T10:24:04;5.60;99.90
28336;DHT22;15592;53.656;7.276;2022-12-07T10:26:35;5.70;99.90
28336;DHT22;15592;53.656;7.276;2022-12-07T10:32:32;5.70;99.90
28336;DHT22;15592;53.656;7.276;2022-12-07T10:34:39;5.70;99.90
28336;DHT22;15592;53.656;7.276;2022-12-07T10:44:41;5.70;99.90
28336;DHT22;15592;53.656;7.276;2022-12-07T10:49:53;5.80;99.90
28336;DHT22;15592;53.656;7.276;2022-12-07T11:06:45;6.00;99.90
28336;DHT22;15592;53.656;7.276;2022-12-07T11:14:56;6.20;99.90
28336;DHT22;15592;53.656;7.276;2022-12-07T11:17:56;6.30;99.90
28336;DHT22;15592;53.656;7.276;2022-12-07T11:20:34;6.40;99.90
28336;DHT22;15592;53.656;7.276;2022-12-07T11:34:43;6.30;99.90
28336;DHT22;15592;53.656;7.276;2022-12-07T11:37:18;6.30;99.90
28336;DHT22;15592;53.656;7.276;2022-12-07T11:39:51;6.30;99.90
28336;DHT22;15592;53.656;7.276;2022-12-07T11:42:36;6.30;99.90
28336;DHT22;15592;53.656;7.276;2022-12-07T11:45:16;6.30;99.90
28336;DHT22;15592;53.656;7.276;2022-12-07T11:47:54;6.20;99.90
28336;DHT22;15592;53.656;7.276;2022-12-07T11:50:34;6.20;99.90
28336;DHT22;15592;53.656;7.276;2022-12-07T12:03:56;6.30;99.90
28336;DHT22;15592;53.656;7.276;2022-12-07T12:06:23;6.30;99.90
28336;DHT22;15592;53.656;7.276;2022-12-07T12:08:57;6.20;99.90
28336;DHT22;15592;53.656;7.276;2022-12-07T12:17:02;6.20;99.90
28336;DHT22;15592;53.656;7.276;2022-12-07T12:19:46;6.20;99.90
28336;DHT22;15592;53.656;7.276;2022-12-07T12:22:22;6.20;99.90
28336;DHT22;15592;53.656;7.276;2022-12-07T12:24:53;6.20;99.90
28336;DHT22;15592;53.656;7.276;2022-12-07T12:27:26;6.10;99.90
28336;DHT22;15592;53.656;7.276;2022-12-07T12:29:59;5.90;99.90
28336;DHT22;15592;53.656;7.276;2022-12-07T12:32:44;5.80;99.90
28336;DHT22;15592;53.656;7.276;2022-12-07T12:35:34;5.80;99.90
28336;DHT22;15592;53.656;7.276;2022-12-07T12:38:27;5.80;99.90
28336;DHT22;15592;53.656;7.276;2022-12-07T12:40:55;5.90;99.90
28336;DHT22;15592;53.656;7.276;2022-12-07T12:48:54;6.20;99.90
28336;DHT22;15592;53.656;7.276;2022-12-07T12:51:38;6.20;99.90
28336;DHT22;15592;53.656;7.276;2022-12-07T12:54:10;6.10;99.90
28336;DHT22;15592;53.656;7.276;2022-12-07T12:59:38;6.00;99.90
28336;DHT22;15592;53.656;7.276;2022-12-07T13:15:52;5.70;99.90
28336;DHT22;15592;53.656;7.276;2022-12-07T13:21:42;5.70;99.90
28336;DHT22;15592;53.656;7.276;2022-12-07T13:26:23;5.70;99.90
28336;DHT22;15592;53.656;7.276;2022-12-07T13:32:16;5.80;99.90
28336;DHT22;15592;53.656;7.276;2022-12-07T13:39:54;5.80;99.90
28336;DHT22;15592;53.656;7.276;2022-12-07T13:42:30;5.70;99.90
28336;DHT22;15592;53.656;7.276;2022-12-07T13:44:57;5.70;99.90
28336;DHT22;15592;53.656;7.276;2022-12-07T13:47:43;5.80;99.90
28336;DHT22;15592;53.656;7.276;2022-12-07T13:50:28;5.80;99.90
28336;DHT22;15592;53.656;7.276;2022-12-07T13:52:59;5.80;99.90
28336;DHT22;15592;53.656;7.276;2022-12-07T13:55:25;5.80;99.90
28336;DHT22;15592;53.656;7.276;2022-12-07T13:57:53;5.80;99.90
28336;DHT22;15592;53.656;7.276;2022-12-07T14:03:29;5.70;99.90
28336;DHT22;15592;53.656;7.276;2022-12-07T14:08:36;5.60;99.90
28336;DHT22;15592;53.656;7.276;2022-12-07T14:11:02;5.60;99.90
28336;DHT22;15592;53.656;7.276;2022-12-07T14:13:34;5.50;99.90
28336;DHT22;15592;53.656;7.276;2022-12-07T14:16:02;5.50;99.90
28336;DHT22;15592;53.656;7.276;2022-12-07T14:18:30;5.50;99.90
28336;DHT22;15592;53.656;7.276;2022-12-07T14:23:37;5.50;99.90
28336;DHT22;15592;53.656;7.276;2022-12-07T14:26:14;5.40;99.90
28336;DHT22;15592;53.656;7.276;2022-12-07T14:28:42;5.10;99.90
28336;DHT22;15592;53.656;7.276;2022-12-07T14:31:13;5.00;99.90
28336;DHT22;15592;53.656;7.276;2022-12-07T14:33:39;4.70;99.90
28336;DHT22;15592;53.656;7.276;2022-12-07T14:36:07;4.60;99.90
28336;DHT22;15592;53.656;7.276;2022-12-07T14:38:34;4.40;99.90
28336;DHT22;15592;53.656;7.276;2022-12-07T14:40:59;4.40;99.90
28336;DHT22;15592;53.656;7.276;2022-12-07T14:43:45;4.20;99.90
28336;DHT22;15592;53.656;7.276;2022-12-07T14:46:11;4.20;99.90
28336;DHT22;15592;53.656;7.276;2022-12-07T14:48:36;4.20;99.90
28336;DHT22;15592;53.656;7.276;2022-12-07T14:51:03;4.20;99.90
28336;DHT22;15592;53.656;7.276;2022-12-07T14:53:33;4.20;99.90
28336;DHT22;15592;53.656;7.276;2022-12-07T14:55:59;4.20;99.90
28336;DHT22;15592;53.656;7.276;2022-12-07T14:58:25;4.30;99.90
28336;DHT22;15592;53.656;7.276;2022-12-07T15:00:51;4.30;99.90
28336;DHT22;15592;53.656;7.276;2022-12-07T15:03:16;4.40;99.90
28336;DHT22;15592;53.656;7.276;2022-12-07T15:05:42;4.40;99.90
28336;DHT22;15592;53.656;7.276;2022-12-07T15:08:17;4.40;99.90
28336;DHT22;15592;53.656;7.276;2022-12-07T15:10:43;4.40;99.90
28336;DHT22;15592;53.656;7.276;2022-12-07T15:13:09;4.40;99.90
28336;DHT22;15592;53.656;7.276;2022-12-07T15:15:54;4.50;99.90
28336;DHT22;15592;53.656;7.276;2022-12-07T15:18:20;4.50;99.90
28336;DHT22;15592;53.656;7.276;2022-12-07T15:20:47;4.40;99.90
28336;DHT22;15592;53.656;7.276;2022-12-07T15:23:13;4.40;99.90
28336;DHT22;15592;53.656;7.276;2022-12-07T15:25:42;4.40;99.90
28336;DHT22;15592;53.656;7.276;2022-12-07T15:28:08;4.40;99.90
28336;DHT22;15592;53.656;7.276;2022-12-07T15:30:36;4.40;99.90
28336;DHT22;15592;53.656;7.276;2022-12-07T15:33:02;4.40;99.90
28336;DHT22;15592;53.656;7.276;2022-12-07T15:35:28;4.30;99.90
28336;DHT22;15592;53.656;7.276;2022-12-07T15:37:53;4.30;99.90
28336;DHT22;15592;53.656;7.276;2022-12-07T15:40:19;4.30;99.90
28336;DHT22;15592;53.656;7.276;2022-12-07T15:42:44;4.20;99.90
28336;DHT22;15592;53.656;7.276;2022-12-07T15:45:10;4.10;99.90
28336;DHT22;15592;53.656;7.276;2022-12-07T15:47:44;4.00;99.90
28336;DHT22;15592;53.656;7.276;2022-12-07T15:50:15;4.00;99.90
28336;DHT22;15592;53.656;7.276;2022-12-07T15:52:42;4.00;99.90
28336;DHT22;15592;53.656;7.276;2022-12-07T15:55:09;3.90;99.90
28336;DHT22;15592;53.656;7.276;2022-12-07T15:57:36;3.90;99.90
28336;DHT22;15592;53.656;7.276;2022-12-07T16:00:04;3.90;99.90
28336;DHT22;15592;53.656;7.276;2022-12-07T16:02:30;3.90;99.90
28336;DHT22;15592;53.656;7.276;2022-12-07T16:04:56;3.90;99.90
28336;DHT22;15592;53.656;7.276;2022-12-07T16:07:21;4.00;99.90
28336;DHT22;15592;53.656;7.276;2022-12-07T16:09:47;4.00;99.90
28336;DHT22;15592;53.656;7.276;2022-12-07T16:12:15;4.10;99.90
28336;DHT22;15592;53.656;7.276;2022-12-07T16:14:41;4.10;99.90
28336;DHT22;15592;53.656;7.276;2022-12-07T16:17:08;4.10;99.90
28336;DHT22;15592;53.656;7.276;2022-12-07T16:19:35;4.20;99.90
28336;DHT22;15592;53.656;7.276;2022-12-07T16:22:01;4.20;99.90
28336;DHT22;15592;53.656;7.276;2022-12-07T16:24:27;4.20;99.90
28336;DHT22;15592;53.656;7.276;2022-12-07T16:26:52;4.20;99.90
28336;DHT22;15592;53.656;7.276;2022-12-07T16:29:20;4.20;99.90
28336;DHT22;15592;53.656;7.276;2022-12-07T16:31:46;4.20;99.90
28336;DHT22;15592;53.656;7.276;2022-12-07T16:34:12;4.20;99.90
28336;DHT22;15592;53.656;7.276;2022-12-07T16:36:37;4.20;99.90
28336;DHT22;15592;53.656;7.276;2022-12-07T16:39:04;4.20;99.90
28336;DHT22;15592;53.656;7.276;2022-12-07T16:41:30;4.10;99.90
28336;DHT22;15592;53.656;7.276;2022-12-07T16:43:56;4.20;99.90
28336;DHT22;15592;53.656;7.276;2022-12-07T16:46:21;4.20;99.90
28336;DHT22;15592;53.656;7.276;2022-12-07T16:48:47;4.10;99.90
28336;DHT22;15592;53.656;7.276;2022-12-07T16:51:13;4.10;99.90
28336;DHT22;15592;53.656;7.276;2022-12-07T16:53:41;4.10;99.90
28336;DHT22;15592;53.656;7.276;2022-12-07T16:56:12;4.10;99.90
28336;DHT22;15592;53.656;7.276;2022-12-07T16:58:38;4.10;99.90
28336;DHT22;15592;53.656;7.276;2022-12-07T17:01:17;4.10;99.90
28336;DHT22;15592;53.656;7.276;2022-12-07T17:03:44;4.00;99.90
28336;DHT22;15592;53.656;7.276;2022-12-07T17:06:21;4.00;99.90
28336;DHT22;15592;53.656;7.276;2022-12-07T17:08:48;4.00;99.90
28336;DHT22;15592;53.656;7.276;2022-12-07T17:11:16;4.10;99.90
28336;DHT22;15592;53.656;7.276;2022-12-07T17:13:41;4.10;99.90
28336;DHT22;15592;53.656;7.276;2022-12-07T17:16:26;4.20;99.90
28336;DHT22;15592;53.656;7.276;2022-12-07T17:18:51;4.20;99.90
28336;DHT22;15592;53.656;7.276;2022-12-07T17:21:17;4.20;99.90
28336;DHT22;15592;53.656;7.276;2022-12-07T17:23:43;4.30;99.90
28336;DHT22;15592;53.656;7.276;2022-12-07T17:26:12;4.30;99.90
28336;DHT22;15592;53.656;7.276;2022-12-07T17:28:38;4.30;99.90
28336;DHT22;15592;53.656;7.276;2022-12-07T17:31:06;4.30;99.90
28336;DHT22;15592;53.656;7.276;2022-12-07T17:33:33;4.30;99.90
28336;DHT22;15592;53.656;7.276;2022-12-07T17:35:59;4.20;99.90
28336;DHT22;15592;53.656;7.276;2022-12-07T17:38:24;4.20;99.90
28336;DHT22;15592;53.656;7.276;2022-12-07T17:40:50;4.20;99.90
28336;DHT22;15592;53.656;7.276;2022-12-07T17:43:16;4.10;99.90
28336;DHT22;15592;53.656;7.276;2022-12-07T17:45:42;4.10;99.90
28336;DHT22;15592;53.656;7.276;2022-12-07T17:48:07;4.10;99.90
28336;DHT22;15592;53.656;7.276;2022-12-07T17:50:33;4.10;99.90
28336;DHT22;15592;53.656;7.276;2022-12-07T17:53:17;4.00;99.90
28336;DHT22;15592;53.656;7.276;2022-12-07T17:55:43;4.00;99.90
28336;DHT22;15592;53.656;7.276;2022-12-07T17:58:09;4.00;99.90
28336;DHT22;15592;53.656;7.276;2022-12-07T18:00:35;4.00;99.90
28336;DHT22;15592;53.656;7.276;2022-12-07T18:03:05;4.00;99.90
28336;DHT22;15592;53.656;7.276;2022-12-07T18:05:35;4.10;99.90
28336;DHT22;15592;53.656;7.276;2022-12-07T18:08:01;4.10;99.90
28336;DHT22;15592;53.656;7.276;2022-12-07T18:10:26;4.10;99.90
28336;DHT22;15592;53.656;7.276;2022-12-07T18:12:52;4.10;99.90
28336;DHT22;15592;53.656;7.276;2022-12-07T18:15:38;4.10;99.90
28336;DHT22;15592;53.656;7.276;2022-12-07T18:18:04;4.10;99.90
28336;DHT22;15592;53.656;7.276;2022-12-07T18:20:29;4.10;99.90
28336;DHT22;15592;53.656;7.276;2022-12-07T18:22:55;4.10;99.90
28336;DHT22;15592;53.656;7.276;2022-12-07T18:25:21;4.10;99.90